Time;durP1;ratioP1;P1;durP2;ratioP2;P2;SDS_P1;SDS_P2;PMS_P1;PMS_P2;Temp;Humidity;BMP_temperature;BMP_pressure;BME280_temperature;BME280_humidity;BME280_pressure;Samples;Min_cycle;Max_cycle;Signal;HPM_P1;HPM_P2
2022/09/19 00:01:14;;;;;;;810.53;758.53;;;9.10;99.90;;;;;;4961245;29;20512;-84
2022/09/19 00:03:54;;;;;;;817.80;765.60;;;9.30;99.90;;;;;;5011299;28;20473;-84
2022/09/19 00:06:31;;;;;;;814.37;762.37;;;9.30;99.90;;;;;;5021965;28;20463;-84
2022/09/19 00:09:03;;;;;;;813.43;761.33;;;9.40;99.90;;;;;;5022349;28;20463;-84
2022/09/19 00:14:30;;;;;;;819.77;767.53;;;9.50;99.90;;;;;;5016885;28;20508;-84
2022/09/19 00:17:02;;;;;;;820.50;767.60;;;9.60;99.90;;;;;;5022811;28;20977;-84
2022/09/19 00:19:33;;;;;;;833.17;779.07;;;9.60;99.90;;;;;;5022829;28;20473;-84
2022/09/19 00:22:09;;;;;;;832.37;777.83;;;9.60;99.90;;;;;;5024642;28;20464;-83
2022/09/19 00:24:49;;;;;;;833.30;778.40;;;9.60;99.90;;;;;;5024444;28;20457;-84
2022/09/19 00:27:21;;;;;;;833.87;779.00;;;9.50;99.90;;;;;;5024375;28;20461;-84
2022/09/19 00:29:58;;;;;;;840.17;785.10;;;9.50;99.90;;;;;;5025258;28;20449;-83
2022/09/19 00:32:29;;;;;;;846.90;791.17;;;9.50;99.90;;;;;;5023830;28;20464;-83
2022/09/19 00:34:56;;;;;;;886.40;827.90;;;9.50;99.90;;;;;;5023649;28;20461;-84
2022/09/19 00:37:26;;;;;;;879.87;822.07;;;9.50;99.90;;;;;;5024299;28;20450;-84
2022/09/19 00:39:56;;;;;;;880.00;822.10;;;9.40;99.90;;;;;;5023686;28;20477;-84
2022/09/19 00:42:26;;;;;;;874.80;817.10;;;9.40;99.90;;;;;;5023456;28;20836;-84
2022/09/19 00:45:05;;;;;;;868.70;811.90;;;9.50;99.90;;;;;;5023426;28;20460;-83
2022/09/19 00:47:38;;;;;;;870.57;813.17;;;9.50;99.90;;;;;;5023945;28;20457;-83
2022/09/19 00:50:17;;;;;;;873.37;816.97;;;9.50;99.90;;;;;;5023212;28;20480;-84
2022/09/19 00:53:02;;;;;;;871.67;815.93;;;9.60;99.90;;;;;;5003812;28;20535;-83
2022/09/19 00:55:32;;;;;;;871.33;815.33;;;9.60;99.90;;;;;;5013925;28;20457;-83
2022/09/19 00:58:06;;;;;;;875.37;819.47;;;9.60;99.90;;;;;;5023870;28;20449;-83
2022/09/19 01:00:33;;;;;;;880.17;824.60;;;9.50;99.90;;;;;;5023910;28;20468;-83
2022/09/19 01:03:01;;;;;;;885.20;829.80;;;9.60;99.90;;;;;;5023740;28;20477;-84
2022/09/19 01:05:33;;;;;;;885.43;830.03;;;9.50;99.90;;;;;;5022564;28;20538;-83
2022/09/19 01:08:33;;;;;;;894.10;837.40;;;9.40;99.90;;;;;;5023970;28;20541;-83
2022/09/19 01:11:22;;;;;;;896.30;839.20;;;9.40;99.90;;;;;;5022521;28;20512;-83
2022/09/19 01:14:15;;;;;;;889.37;832.77;;;9.30;99.90;;;;;;5022055;28;20481;-83
2022/09/19 01:16:50;;;;;;;905.33;847.63;;;9.30;99.90;;;;;;5018409;28;20453;-84
2022/09/19 01:20:07;;;;;;;;;;;;;;;;;;;;;
2022/09/19 01:22:45;;;;;;;911.57;854.57;;;9.30;99.90;;;;;;5021719;28;20461;-83
2022/09/19 01:25:22;;;;;;;909.93;853.53;;;9.30;99.90;;;;;;5021832;28;20472;-83
2022/09/19 01:28:11;;;;;;;908.93;852.33;;;9.30;99.90;;;;;;5024090;28;20460;-83
2022/09/19 01:31:21;;;;;;;921.77;864.53;;;9.40;99.90;;;;;;5021946;28;20507;-82
2022/09/19 01:34:02;;;;;;;919.00;861.90;;;9.40;99.90;;;;;;5021412;28;20981;-82
2022/09/19 01:37:03;;;;;;;920.30;863.17;;;9.30;99.90;;;;;;5021038;28;20453;-82
2022/09/19 01:39:33;;;;;;;917.07;860.27;;;9.30;99.90;;;;;;5022858;28;20453;-83
2022/09/19 01:42:01;;;;;;;899.37;842.87;;;9.30;99.90;;;;;;5025658;28;20463;-82
2022/09/19 01:44:32;;;;;;;905.40;848.57;;;9.20;99.90;;;;;;5022744;28;20477;-83
2022/09/19 01:47:11;;;;;;;908.53;851.13;;;9.20;99.90;;;;;;5024385;28;20459;-83
2022/09/19 01:49:47;;;;;;;910.00;852.40;;;9.10;99.90;;;;;;5023195;28;20874;-82
2022/09/19 01:52:27;;;;;;;896.70;841.20;;;9.20;99.90;;;;;;5024075;28;20544;-83
2022/09/19 01:55:04;;;;;;;902.83;846.43;;;9.20;99.90;;;;;;5023465;28;20456;-83
2022/09/19 01:57:48;;;;;;;913.53;856.37;;;9.10;99.90;;;;;;5024096;28;20513;-83
2022/09/19 02:00:21;;;;;;;904.50;847.90;;;9.10;99.90;;;;;;5022501;28;20469;-82
2022/09/19 02:03:03;;;;;;;902.23;846.00;;;9.10;99.90;;;;;;5022771;28;20477;-82
2022/09/19 02:05:37;;;;;;;906.80;850.20;;;9.10;99.90;;;;;;5003654;28;20458;-82
2022/09/19 02:08:10;;;;;;;892.10;835.60;;;9.10;99.90;;;;;;5018059;28;20452;-82
2022/09/19 02:10:44;;;;;;;901.70;844.80;;;9.00;99.90;;;;;;5022658;28;20532;-83
2022/09/19 02:13:12;;;;;;;896.07;840.07;;;9.10;99.90;;;;;;5022526;28;20955;-83
2022/09/19 02:15:46;;;;;;;882.60;828.50;;;9.10;99.90;;;;;;5022784;28;20895;-82
2022/09/19 02:18:24;;;;;;;880.50;826.20;;;9.10;99.90;;;;;;5022876;28;20479;-82
2022/09/19 02:20:56;;;;;;;888.93;834.30;;;9.10;99.90;;;;;;5023459;28;20476;-83
2022/09/19 02:23:26;;;;;;;873.80;821.20;;;9.10;99.90;;;;;;5023699;28;20473;-82
2022/09/19 02:25:56;;;;;;;875.10;821.90;;;9.20;99.90;;;;;;5021165;28;20453;-82
2022/09/19 02:28:29;;;;;;;852.27;801.07;;;9.20;99.90;;;;;;5024236;28;20449;-82
2022/09/19 02:30:57;;;;;;;861.57;809.50;;;9.30;99.90;;;;;;5022426;28;20450;-82
2022/09/19 02:33:25;;;;;;;864.93;813.00;;;9.30;99.90;;;;;;5022568;28;20477;-82
2022/09/19 02:36:01;;;;;;;870.20;817.70;;;9.30;99.90;;;;;;5021075;28;20453;-82
2022/09/19 02:38:36;;;;;;;867.13;814.20;;;9.30;99.90;;;;;;5021312;28;20475;-82
2022/09/19 02:41:07;;;;;;;880.37;826.20;;;9.20;99.90;;;;;;5020303;28;20476;-83
2022/09/19 02:43:49;;;;;;;882.00;827.60;;;9.20;99.90;;;;;;5020762;28;20478;-82
2022/09/19 02:46:30;;;;;;;884.70;830.40;;;9.20;99.90;;;;;;5019260;28;20464;-82
2022/09/19 02:49:02;;;;;;;866.60;813.40;;;9.10;99.90;;;;;;5020603;28;20453;-82
2022/09/19 02:51:36;;;;;;;876.73;822.03;;;9.10;99.90;;;;;;5020713;28;20446;-82
2022/09/19 02:54:07;;;;;;;901.83;845.83;;;9.10;99.90;;;;;;5019277;28;20853;-82
2022/09/19 02:56:36;;;;;;;888.23;832.53;;;9.00;99.90;;;;;;5020000;28;20457;-82
2022/09/19 02:59:06;;;;;;;895.27;839.10;;;8.90;99.90;;;;;;5019049;28;20953;-82
2022/09/19 03:01:37;;;;;;;896.77;840.57;;;8.80;99.90;;;;;;5019301;28;20843;-82
2022/09/19 03:04:13;;;;;;;891.83;836.03;;;8.90;99.90;;;;;;5019029;28;20473;-82
2022/09/19 03:06:45;;;;;;;888.63;832.73;;;8.90;99.90;;;;;;5019866;28;20464;-82
2022/09/19 03:09:15;;;;;;;892.33;837.10;;;8.80;99.90;;;;;;5019587;28;20453;-82
2022/09/19 03:11:49;;;;;;;885.00;830.10;;;8.80;99.90;;;;;;5019190;28;20453;-82
2022/09/19 03:14:17;;;;;;;872.37;818.83;;;8.80;99.90;;;;;;5019546;28;21015;-81
2022/09/19 03:16:48;;;;;;;869.63;816.43;;;8.90;99.90;;;;;;5019889;28;20836;-82
2022/09/19 03:19:15;;;;;;;860.43;807.23;;;8.90;99.90;;;;;;5020331;28;20453;-83
2022/09/19 03:21:45;;;;;;;854.40;801.40;;;8.90;99.90;;;;;;5018717;28;20496;-82
2022/09/19 03:24:15;;;;;;;861.03;808.10;;;8.90;99.90;;;;;;5019397;28;20473;-82
2022/09/19 03:26:41;;;;;;;863.13;810.03;;;8.90;99.90;;;;;;5018905;28;20451;-82
2022/09/19 03:29:15;;;;;;;866.77;813.13;;;8.90;99.90;;;;;;5018798;28;20457;-82
2022/09/19 03:31:42;;;;;;;871.57;817.87;;;8.80;99.90;;;;;;5019877;28;20449;-82
2022/09/19 03:34:13;;;;;;;862.47;809.03;;;8.70;99.90;;;;;;5019603;28;20477;-82
2022/09/19 03:36:41;;;;;;;863.33;810.33;;;8.70;99.90;;;;;;5019587;28;21027;-82
2022/09/19 03:39:08;;;;;;;850.30;798.00;;;8.80;99.90;;;;;;5018992;28;20460;-82
2022/09/19 03:41:38;;;;;;;820.67;770.27;;;8.80;99.90;;;;;;5020192;28;20485;-82
2022/09/19 03:44:07;;;;;;;820.83;769.80;;;8.90;99.90;;;;;;5019648;28;20477;-81
2022/09/19 03:46:34;;;;;;;832.43;780.93;;;8.90;99.90;;;;;;5019537;28;20539;-82
2022/09/19 03:49:04;;;;;;;823.80;772.90;;;8.80;99.90;;;;;;5018511;28;20523;-81
2022/09/19 03:51:33;;;;;;;834.17;782.30;;;8.90;99.90;;;;;;5019482;28;20523;-82
2022/09/19 03:54:00;;;;;;;838.30;786.40;;;8.90;99.90;;;;;;5019049;28;20543;-83
2022/09/19 03:56:29;;;;;;;835.90;784.30;;;8.80;99.90;;;;;;5019632;28;20466;-82
2022/09/19 03:58:56;;;;;;;849.30;796.80;;;8.80;99.90;;;;;;5019583;28;20449;-83
2022/09/19 04:01:23;;;;;;;846.87;794.27;;;8.80;99.90;;;;;;5019421;28;20496;-82
2022/09/19 04:04:04;;;;;;;847.13;794.83;;;8.80;99.90;;;;;;5019116;28;20476;-82
2022/09/19 04:07:20;;;;;;;;;;;;;;;;;;;;;
2022/09/19 04:10:31;;;;;;;821.90;770.50;;;8.60;99.90;;;;;;5011506;28;20436;-81
2022/09/19 04:13:20;;;;;;;856.30;803.10;;;8.70;99.90;;;;;;5019893;28;20248;-83
2022/09/19 04:16:02;;;;;;;854.90;801.50;;;8.70;99.90;;;;;;5018585;28;20992;-82
2022/09/19 04:19:09;;;;;;;845.33;792.13;;;8.70;99.90;;;;;;5020224;28;20460;-84
2022/09/19 04:21:41;;;;;;;847.77;794.57;;;8.70;99.90;;;;;;5018957;28;20526;-82
2022/09/19 04:24:08;;;;;;;854.30;801.60;;;8.60;99.90;;;;;;5018090;28;20508;-82
2022/09/19 04:26:38;;;;;;;855.43;802.63;;;8.60;99.90;;;;;;5017179;28;20823;-83
2022/09/19 04:29:09;;;;;;;846.97;794.67;;;8.60;99.90;;;;;;5017218;28;20960;-82
2022/09/19 04:31:39;;;;;;;852.80;800.60;;;8.60;99.90;;;;;;5017124;28;21032;-82
2022/09/19 04:34:06;;;;;;;844.07;792.17;;;8.60;99.90;;;;;;5022009;23;20491;-82
2022/09/19 04:36:33;;;;;;;829.80;778.60;;;8.70;99.90;;;;;;5018265;28;20449;-82
2022/09/19 04:39:03;;;;;;;829.10;777.97;;;8.70;99.90;;;;;;5017496;28;20481;-82
2022/09/19 04:41:32;;;;;;;830.60;779.50;;;8.70;99.90;;;;;;5017119;28;20476;-83
2022/09/19 04:44:15;;;;;;;818.80;768.10;;;8.80;99.90;;;;;;5017378;28;20483;-82
2022/09/19 04:46:42;;;;;;;826.50;775.57;;;8.80;99.90;;;;;;4999205;28;20457;-83
2022/09/19 04:49:09;;;;;;;822.73;772.03;;;8.80;99.90;;;;;;5018364;28;20897;-82
2022/09/19 04:51:36;;;;;;;809.70;759.30;;;8.90;99.90;;;;;;5019044;28;20844;-82
2022/09/19 04:54:08;;;;;;;796.10;746.33;;;9.00;99.90;;;;;;5020541;28;20531;-81
2022/09/19 04:59:19;;;;;;;788.53;739.63;;;9.10;99.90;;;;;;5014719;28;20453;-82
2022/09/19 05:02:01;;;;;;;765.93;718.03;;;9.20;99.90;;;;;;5017047;28;20476;-81
2022/09/19 05:04:41;;;;;;;781.47;732.53;;;9.20;99.90;;;;;;5019250;28;20469;-81
2022/09/19 05:07:13;;;;;;;778.90;729.90;;;9.20;99.90;;;;;;5020617;28;20461;-81
2022/09/19 05:09:55;;;;;;;781.30;732.40;;;9.00;99.90;;;;;;5020049;28;20453;-81
2022/09/19 05:12:47;;;;;;;770.50;722.30;;;9.20;99.90;;;;;;5019917;28;20540;-81
2022/09/19 05:15:15;;;;;;;766.50;718.60;;;9.00;99.90;;;;;;5020369;28;20456;-82
2022/09/19 05:17:42;;;;;;;775.83;727.23;;;9.00;99.90;;;;;;5021239;28;20457;-82
2022/09/19 05:20:09;;;;;;;786.43;737.13;;;9.00;99.90;;;;;;5020445;28;20817;-82
2022/09/19 05:22:36;;;;;;;779.60;730.70;;;9.00;99.90;;;;;;5020349;28;20480;-83
2022/09/19 05:25:04;;;;;;;777.53;728.73;;;8.90;99.90;;;;;;5020214;28;20453;-83
2022/09/19 05:27:33;;;;;;;752.87;705.77;;;8.90;99.90;;;;;;5022288;28;20453;-82
2022/09/19 05:29:59;;;;;;;764.40;714.83;;;9.00;99.90;;;;;;5021802;28;20453;-82
2022/09/19 05:32:27;;;;;;;766.63;718.43;;;8.90;99.90;;;;;;5020058;28;20460;-83
2022/09/19 05:34:56;;;;;;;770.67;721.97;;;8.90;99.90;;;;;;5019883;28;20456;-83
2022/09/19 05:37:24;;;;;;;756.77;708.67;;;9.00;99.90;;;;;;5020542;28;20517;-82
2022/09/19 05:39:51;;;;;;;756.23;708.43;;;9.00;99.90;;;;;;5021010;28;20457;-82
2022/09/19 05:42:18;;;;;;;741.53;694.30;;;9.00;99.90;;;;;;5020456;28;20476;-82
2022/09/19 05:44:44;;;;;;;728.50;682.47;;;9.10;99.90;;;;;;5020158;28;20461;-82
2022/09/19 05:47:11;;;;;;;724.53;679.43;;;9.20;99.90;;;;;;5019557;28;20453;-82
2022/09/19 05:49:39;;;;;;;725.20;679.50;;;9.30;99.90;;;;;;5019839;28;20472;-82
2022/09/19 05:54:46;;;;;;;693.90;652.10;;;9.50;99.90;;;;;;5018839;28;20475;-82
2022/09/19 05:57:13;;;;;;;674.40;634.60;;;9.60;99.90;;;;;;5017858;28;20449;-82
2022/09/19 05:59:40;;;;;;;694.30;652.97;;;9.70;99.90;;;;;;5018820;28;20452;-81
2022/09/19 06:02:11;;;;;;;702.97;661.33;;;9.80;99.90;;;;;;5018726;28;20473;-82
2022/09/19 06:04:39;;;;;;;711.53;669.53;;;9.90;99.90;;;;;;5019036;28;20540;-82
2022/09/19 06:07:06;;;;;;;730.83;687.60;;;9.90;99.90;;;;;;5018317;28;20445;-81
2022/09/19 06:09:32;;;;;;;705.27;664.20;;;9.90;99.90;;;;;;5018974;28;20523;-81
2022/09/19 06:11:59;;;;;;;721.77;681.30;;;9.90;99.90;;;;;;5018802;28;20825;-81
2022/09/19 06:14:27;;;;;;;713.37;673.57;;;9.90;99.90;;;;;;5018670;28;20480;-82
2022/09/19 06:16:54;;;;;;;720.97;679.27;;;9.80;99.90;;;;;;5019817;28;20445;-81
2022/09/19 06:19:21;;;;;;;732.00;689.20;;;9.90;99.90;;;;;;5019371;28;20453;-81
2022/09/19 06:21:50;;;;;;;721.53;679.80;;;9.90;99.90;;;;;;5019659;28;20480;-82
2022/09/19 06:24:17;;;;;;;715.67;674.47;;;10.00;99.90;;;;;;5017601;28;20465;-82
2022/09/19 06:26:43;;;;;;;723.97;682.50;;;10.10;99.90;;;;;;5019663;28;20461;-82
2022/09/19 06:29:10;;;;;;;709.20;668.60;;;10.30;99.90;;;;;;5019194;28;20456;-81
2022/09/19 06:31:37;;;;;;;679.50;642.40;;;10.40;99.90;;;;;;5018570;28;20445;-81
2022/09/19 06:34:03;;;;;;;681.73;643.23;;;10.60;99.90;;;;;;5018122;28;20475;-78
2022/09/19 06:36:30;;;;;;;638.27;604.40;;;10.70;99.90;;;;;;5014595;28;20528;-81
2022/09/19 06:38:59;;;;;;;669.37;632.40;;;10.70;99.90;;;;;;5018913;28;20587;-81
2022/09/19 06:41:26;;;;;;;672.17;634.83;;;10.80;99.90;;;;;;5018197;28;20509;-81
2022/09/19 06:43:53;;;;;;;673.03;635.77;;;10.90;99.90;;;;;;5018855;28;20469;-82
2022/09/19 06:46:19;;;;;;;649.37;613.77;;;11.00;99.90;;;;;;5018164;28;20460;-80
2022/09/19 06:48:48;;;;;;;650.87;615.57;;;11.10;99.90;;;;;;5018609;28;20464;-83
2022/09/19 06:51:15;;;;;;;633.37;599.13;;;11.10;99.90;;;;;;5019202;28;20449;-82
2022/09/19 06:53:41;;;;;;;625.07;592.20;;;11.20;99.90;;;;;;5019762;28;20479;-81
2022/09/19 06:56:09;;;;;;;615.43;583.53;;;11.30;99.90;;;;;;5018867;28;20462;-82
2022/09/19 06:58:37;;;;;;;622.27;589.83;;;11.30;99.90;;;;;;5019038;28;20461;-81
2022/09/19 07:01:03;;;;;;;613.27;581.57;;;11.40;99.90;;;;;;5018663;28;20460;-82
2022/09/19 07:03:30;;;;;;;607.23;576.37;;;11.40;99.90;;;;;;5019523;28;20488;-80
2022/09/19 07:05:59;;;;;;;623.73;592.30;;;11.40;99.90;;;;;;5017121;28;20488;-83
2022/09/19 07:08:26;;;;;;;606.23;575.53;;;11.40;99.90;;;;;;5020387;28;20453;-82
2022/09/19 07:10:53;;;;;;;592.03;562.83;;;11.40;99.90;;;;;;5016609;28;20449;-80
2022/09/19 07:13:21;;;;;;;579.60;551.80;;;11.50;99.90;;;;;;5019549;28;20465;-82
2022/09/19 07:15:48;;;;;;;602.80;572.40;;;11.60;99.90;;;;;;5022949;28;20457;-82
2022/09/19 07:18:15;;;;;;;584.03;555.03;;;11.60;99.90;;;;;;5023132;28;20453;-82
2022/09/19 07:20:42;;;;;;;572.13;544.00;;;11.70;99.90;;;;;;5022023;28;20449;-82
2022/09/19 07:23:13;;;;;;;575.97;547.87;;;11.80;99.90;;;;;;5021708;28;20484;-82
2022/09/19 07:25:40;;;;;;;597.23;567.83;;;11.80;99.90;;;;;;5019635;28;20457;-81
2022/09/19 07:28:12;;;;;;;596.60;567.20;;;11.90;99.90;;;;;;5018476;28;20449;-81
2022/09/19 07:30:45;;;;;;;534.20;508.30;;;12.00;99.90;;;;;;5018955;28;20461;-82
2022/09/19 07:33:14;;;;;;;524.03;498.93;;;12.00;99.90;;;;;;5018763;28;20480;-82
2022/09/19 07:35:41;;;;;;;500.87;476.90;;;12.20;99.90;;;;;;5018446;28;20748;-83
2022/09/19 07:38:11;;;;;;;505.63;481.33;;;12.30;99.90;;;;;;5019488;28;20450;-82
2022/09/19 07:40:38;;;;;;;471.77;449.47;;;12.40;99.90;;;;;;5017561;28;20461;-82
2022/09/19 07:43:05;;;;;;;468.43;446.53;;;12.40;99.90;;;;;;5029640;23;20499;-82
2022/09/19 07:45:36;;;;;;;458.70;437.70;;;12.40;99.90;;;;;;4977981;28;20499;-81
2022/09/19 07:48:05;;;;;;;454.50;433.33;;;12.40;99.90;;;;;;4977086;28;20454;-83
2022/09/19 07:50:45;;;;;;;459.47;438.77;;;12.40;99.90;;;;;;4980645;28;20199;-83
2022/09/19 07:53:26;;;;;;;464.80;443.90;;;12.40;99.90;;;;;;4988691;28;20474;-83
2022/09/19 07:55:59;;;;;;;419.83;401.63;;;12.40;99.90;;;;;;4999785;28;20532;-83
2022/09/19 07:58:30;;;;;;;431.00;412.60;;;12.40;99.90;;;;;;4999654;28;20454;-84
2022/09/19 08:01:07;;;;;;;414.30;396.80;;;12.50;99.90;;;;;;4999882;28;20821;-83
2022/09/19 08:03:35;;;;;;;357.63;342.33;;;12.50;99.90;;;;;;4999163;28;20506;-82
2022/09/19 08:06:06;;;;;;;331.57;317.37;;;12.60;99.90;;;;;;5000453;28;20489;-83
2022/09/19 08:08:46;;;;;;;298.37;285.63;;;12.50;99.90;;;;;;5000377;28;20458;-83
2022/09/19 08:11:13;;;;;;;319.97;306.67;;;12.40;99.90;;;;;;4998649;28;20545;-83
2022/09/19 08:13:42;;;;;;;361.33;346.53;;;12.50;99.90;;;;;;4998383;28;20557;-82
2022/09/19 08:16:12;;;;;;;303.13;290.63;;;12.60;99.90;;;;;;4998824;28;20450;-83
2022/09/19 08:18:44;;;;;;;296.00;284.00;;;12.60;99.90;;;;;;4998762;28;20541;-83
2022/09/19 08:21:13;;;;;;;320.07;307.27;;;12.70;99.90;;;;;;4999644;28;20954;-82
2022/09/19 08:23:42;;;;;;;294.03;282.23;;;12.90;99.90;;;;;;4998389;28;20516;-83
2022/09/19 08:26:10;;;;;;;263.33;252.73;;;13.10;99.90;;;;;;4998457;28;20474;-82
2022/09/19 08:28:37;;;;;;;264.07;253.27;;;13.30;99.90;;;;;;4999278;28;20486;-83
2022/09/19 08:31:14;;;;;;;229.60;220.00;;;13.50;99.90;;;;;;4999047;28;20460;-83
2022/09/19 08:33:43;;;;;;;248.67;238.47;;;13.70;99.90;;;;;;4998155;28;20672;-83
2022/09/19 08:36:14;;;;;;;244.10;234.00;;;13.80;99.90;;;;;;4998449;28;20461;-83
2022/09/19 08:38:48;;;;;;;236.47;226.57;;;14.10;99.90;;;;;;4999324;28;20450;-83
2022/09/19 08:41:34;;;;;;;240.63;230.43;;;14.00;99.90;;;;;;4999512;28;20457;-82
2022/09/19 08:44:10;;;;;;;237.70;227.50;;;14.10;99.90;;;;;;4999139;28;21016;-82
2022/09/19 08:46:49;;;;;;;234.73;224.90;;;14.10;99.90;;;;;;4999315;28;20493;-83
2022/09/19 08:52:22;;;;;;;234.00;224.50;;;14.10;99.90;;;;;;4998449;28;20592;-83
2022/09/19 08:54:55;;;;;;;222.80;213.90;;;14.40;99.50;;;;;;4998864;28;20459;-83
2022/09/19 08:57:28;;;;;;;217.77;209.10;;;14.50;99.40;;;;;;4999893;28;20512;-83
2022/09/19 09:00:02;;;;;;;217.57;209.00;;;14.70;98.30;;;;;;4999940;28;20458;-84
2022/09/19 09:02:40;;;;;;;206.90;198.80;;;14.80;98.30;;;;;;4998592;28;20469;-84
2022/09/19 09:05:14;;;;;;;198.87;191.17;;;14.70;96.80;;;;;;4998967;28;20461;-83
2022/09/19 09:07:52;;;;;;;200.10;192.50;;;14.70;97.00;;;;;;4999809;28;20513;-84
2022/09/19 09:10:32;;;;;;;203.67;196.17;;;14.80;97.30;;;;;;4999146;28;20456;-83
2022/09/19 09:13:18;;;;;;;189.00;182.10;;;14.80;96.90;;;;;;4998774;28;20507;-83
2022/09/19 09:15:58;;;;;;;191.60;184.70;;;14.80;96.30;;;;;;4998791;28;20458;-83
2022/09/19 09:18:58;;;;;;;190.07;183.37;;;14.90;97.60;;;;;;4999518;28;20451;-83
2022/09/19 09:21:44;;;;;;;182.03;175.63;;;15.20;97.50;;;;;;4994151;28;20551;-84
2022/09/19 09:24:22;;;;;;;185.90;179.50;;;15.30;95.70;;;;;;4998629;28;20463;-83
2022/09/19 09:26:59;;;;;;;167.10;161.30;;;15.30;96.80;;;;;;4999773;28;20458;-83
2022/09/19 09:29:36;;;;;;;161.57;155.97;;;15.60;96.60;;;;;;5000024;28;20461;-84
2022/09/19 09:32:17;;;;;;;158.00;152.60;;;15.80;95.10;;;;;;4999996;28;20947;-84
2022/09/19 09:35:01;;;;;;;150.70;145.50;;;16.00;95.10;;;;;;5000594;28;20448;-83
2022/09/19 09:37:57;;;;;;;141.27;136.50;;;16.00;94.60;;;;;;4999980;28;20484;-83
2022/09/19 09:46:29;;;;;;;105.17;101.70;;;15.80;93.40;;;;;;5000378;28;20460;-84
2022/09/19 09:48:57;;;;;;;87.30;84.40;;;15.90;94.20;;;;;;5000576;28;20519;-83
2022/09/19 09:51:39;;;;;;;72.30;69.80;;;15.80;93.40;;;;;;5001057;28;20462;-83
2022/09/19 09:57:35;;;;;;;51.67;49.77;;;16.00;94.50;;;;;;5002121;28;20845;-83
2022/09/19 10:03:35;;;;;;;36.67;35.27;;;16.30;94.50;;;;;;5003481;28;20464;-86
2022/09/19 10:06:15;;;;;;;31.90;30.70;;;16.30;93.60;;;;;;5003889;28;20861;-84
2022/09/19 10:08:58;;;;;;;27.30;26.10;;;16.30;92.70;;;;;;5004386;28;20460;-83
2022/09/19 10:11:41;;;;;;;19.07;18.27;;;17.10;92.20;;;;;;5005938;28;20455;-84
2022/09/19 10:14:33;;;;;;;21.40;20.50;;;17.90;89.70;;;;;;5005682;28;20861;-84
2022/09/19 10:17:12;;;;;;;17.43;16.63;;;18.20;88.70;;;;;;5004859;28;20488;-84
2022/09/19 10:19:51;;;;;;;14.13;13.43;;;19.20;86.10;;;;;;5003787;28;20540;-84
2022/09/19 10:22:23;;;;;;;11.27;10.67;;;19.60;82.00;;;;;;5002113;28;20487;-84
2022/09/19 10:24:55;;;;;;;7.10;6.60;;;19.40;78.40;;;;;;5000595;28;20521;-84
2022/09/19 10:27:28;;;;;;;4.93;4.50;;;18.30;78.50;;;;;;5003064;28;20465;-84
2022/09/19 10:30:02;;;;;;;3.30;2.50;;;17.70;84.00;;;;;;5005056;28;20513;-84
2022/09/19 10:32:37;;;;;;;3.23;2.10;;;17.10;86.20;;;;;;5002395;28;20463;-81
2022/09/19 10:35:31;;;;;;;3.20;1.70;;;16.70;87.60;;;;;;5004513;28;20949;-84
2022/09/19 10:38:34;;;;;;;3.20;1.70;;;17.20;89.30;;;;;;4998234;28;20450;-84
2022/09/19 10:41:08;;;;;;;3.30;1.77;;;18.40;84.60;;;;;;5002480;28;20486;-84
2022/09/19 10:43:46;;;;;;;3.53;2.47;;;18.40;80.30;;;;;;5002768;28;20476;-86
2022/09/19 10:46:35;;;;;;;3.10;1.20;;;18.30;85.30;;;;;;5004817;28;20834;-84
2022/09/19 10:51:51;;;;;;;18.40;2.07;;;17.40;83.80;;;;;;5002659;28;20451;-83
2022/09/19 10:54:43;;;;;;;5.90;1.70;;;17.10;82.00;;;;;;5005587;28;20484;-84
2022/09/19 10:57:36;;;;;;;6.30;1.90;;;16.90;84.60;;;;;;5004864;28;20872;-84
2022/09/19 11:00:06;;;;;;;8.53;1.93;;;16.70;86.10;;;;;;5006074;28;20464;-84
2022/09/19 11:02:33;;;;;;;15.30;1.40;;;16.70;88.20;;;;;;5001502;28;20818;-82
2022/09/19 11:05:03;;;;;;;9.60;1.53;;;16.50;91.80;;;;;;5000301;28;20520;-82
2022/09/19 11:07:33;;;;;;;5.70;1.27;;;16.00;90.90;;;;;;4999552;28;20450;-82
2022/09/19 11:10:04;;;;;;;9.17;1.63;;;15.70;91.30;;;;;;4999798;28;20458;-82
2022/09/19 11:12:31;;;;;;;8.00;2.13;;;15.60;91.60;;;;;;5000441;28;20563;-84
2022/09/19 11:15:00;;;;;;;12.20;2.60;;;16.60;90.30;;;;;;4998513;28;20838;-83
2022/09/19 11:18:01;;;;;;;7.20;1.50;;;17.60;87.30;;;;;;4999879;28;20459;-83
2022/09/19 11:20:46;;;;;;;5.40;1.03;;;18.00;84.20;;;;;;5002220;28;20455;-84
2022/09/19 11:23:40;;;;;;;7.17;1.50;;;18.30;76.60;;;;;;5004631;28;20991;-84
2022/09/19 11:26:26;;;;;;;12.73;1.60;;;18.80;75.40;;;;;;4996428;28;20461;-84
2022/09/19 11:29:18;;;;;;;12.47;2.33;;;19.70;72.70;;;;;;5002795;28;20482;-84
2022/09/19 11:32:03;;;;;;;6.20;1.20;;;19.60;68.90;;;;;;5002725;28;20455;-84
2022/09/19 11:34:47;;;;;;;7.37;1.40;;;20.40;69.70;;;;;;5002124;28;21133;-84
2022/09/19 11:37:48;;;;;;;6.43;1.53;;;20.80;64.40;;;;;;5000775;28;20460;-84
2022/09/19 11:40:53;;;;;;;11.80;1.50;;;20.90;62.60;;;;;;5000071;28;21028;-84
2022/09/19 11:43:38;;;;;;;12.17;1.70;;;20.60;57.70;;;;;;4998436;28;20490;-85
2022/09/19 11:49:51;;;;;;;8.30;1.37;;;21.20;54.30;;;;;;4993651;28;20446;-84
2022/09/19 11:52:34;;;;;;;11.43;1.63;;;19.60;63.40;;;;;;5000117;28;20511;-84
2022/09/19 11:55:37;;;;;;;9.50;1.50;;;19.60;62.70;;;;;;4997851;28;20475;-84
2022/09/19 11:58:58;;;;;;;6.80;1.30;;;19.30;54.00;;;;;;4999301;28;20520;-84
2022/09/19 12:02:11;;;;;;;9.07;2.00;;;19.40;63.50;;;;;;4995430;28;20435;-85
2022/09/19 12:08:22;;;;;;;7.13;1.53;;;18.60;63.30;;;;;;4994150;28;20467;-84
2022/09/19 12:14:28;;;;;;;7.33;1.70;;;17.50;67.80;;;;;;4993057;28;20546;-83
2022/09/19 12:17:10;;;;;;;10.77;2.13;;;17.00;68.60;;;;;;4997157;28;20465;-84
2022/09/19 12:20:25;;;;;;;5.20;1.10;;;16.70;73.00;;;;;;4996841;28;20949;-84
2022/09/19 12:26:31;;;;;;;;;;;;;;;;;;;;;
2022/09/19 12:29:08;;;;;;;4.03;1.07;;;11.50;99.90;;;;;;4996097;28;20675;-86
2022/09/19 12:31:41;;;;;;;8.07;1.20;;;11.20;99.90;;;;;;4994016;28;20529;-88
2022/09/19 12:34:40;;;;;;;4.67;1.30;;;11.10;99.90;;;;;;5042462;23;20859;-86
2022/09/19 12:37:41;;;;;;;5.57;4.90;;;11.00;99.90;;;;;;5013051;28;20488;-87
2022/09/19 12:40:26;;;;;;;4.40;3.00;;;11.20;99.90;;;;;;5012972;28;20449;-87
2022/09/19 12:43:15;;;;;;;42.70;41.03;;;10.90;99.90;;;;;;5013062;28;20469;-86
2022/09/19 12:46:09;;;;;;;9.43;6.50;;;11.90;99.90;;;;;;5012815;28;20997;-87
2022/09/19 12:48:48;;;;;;;296.40;287.30;;;11.90;99.90;;;;;;5012335;28;20452;-84
2022/09/19 12:51:22;;;;;;;562.57;540.33;;;11.00;99.90;;;;;;5012089;28;20457;-86
2022/09/19 12:54:01;;;;;;;699.43;659.93;;;11.20;99.90;;;;;;5012544;28;20973;-85
2022/09/19 12:56:33;;;;;;;693.20;648.60;;;11.40;99.90;;;;;;5011813;28;20938;-85
2022/09/19 12:59:06;;;;;;;588.97;564.07;;;11.30;99.90;;;;;;5012532;28;20544;-86
2022/09/19 13:01:39;;;;;;;602.47;573.20;;;11.20;99.90;;;;;;5011972;28;20445;-86
2022/09/19 13:04:27;;;;;;;569.73;544.67;;;11.20;99.90;;;;;;5012575;28;20470;-85
2022/09/19 13:07:03;;;;;;;530.73;508.57;;;11.20;99.90;;;;;;5012956;28;20905;-85
2022/09/19 13:09:38;;;;;;;455.70;438.40;;;11.50;99.90;;;;;;5012901;28;20461;-85
2022/09/19 13:12:13;;;;;;;451.13;434.53;;;11.60;99.90;;;;;;5013228;28;20460;-85
2022/09/19 13:15:05;;;;;;;406.60;391.83;;;11.70;99.90;;;;;;5013308;28;20484;-86
2022/09/19 13:23:39;;;;;;;186.30;180.20;;;12.10;99.90;;;;;;5014390;28;20480;-85
2022/09/19 13:26:40;;;;;;;48.65;46.05;;;12.10;99.90;;;;;;5016044;28;20462;-85
2022/09/19 13:29:45;;;;;;;79.30;75.97;;;12.20;99.90;;;;;;5008679;28;20208;-83
2022/09/19 13:32:34;;;;;;;123.60;119.20;;;12.50;99.90;;;;;;5022957;28;20475;-84
2022/09/19 13:35:14;;;;;;;105.40;101.73;;;12.70;99.90;;;;;;5023125;28;21012;-84
2022/09/19 13:38:02;;;;;;;48.87;46.47;;;13.00;99.90;;;;;;5025094;28;20491;-85
2022/09/19 13:40:57;;;;;;;33.00;31.60;;;13.10;99.90;;;;;;5023860;28;20515;-83
2022/09/19 13:43:48;;;;;;;56.77;54.53;;;13.60;99.90;;;;;;5024665;28;20465;-84
2022/09/19 13:46:23;;;;;;;4.40;1.97;;;14.60;99.90;;;;;;5022668;28;20459;-83
2022/09/19 13:49:00;;;;;;;16.57;1.83;;;15.70;99.90;;;;;;5021605;28;20441;-83
2022/09/19 13:51:59;;;;;;;5.40;1.10;;;16.50;99.90;;;;;;5019935;28;20542;-82
2022/09/19 13:54:42;;;;;;;5.47;1.30;;;16.10;99.90;;;;;;5020088;28;20486;-83